Time,TemperatureF,DewpointF,PressureIn,WindDirection,WindDirectionDegrees,WindSpeedMPH,WindSpeedGustMPH,Humidity,HourlyPrecipIn,Conditions,Clouds,dailyrainin,SolarRadiationWatts/m^2,SoftwareType,DateUTC
2013-06-22 00:05:00,68.4,55.7,30.09,WNW,285,1.0,3.0,64,0.00,,,0.00,0,Wunderground v.1.15,2013-06-21 22:05:00,
2013-06-22 00:20:00,67.9,55.7,30.09,WNW,285,1.0,1.0,65,0.00,,,0.00,0,Wunderground v.1.15,2013-06-21 22:20:00,
2013-06-22 00:30:00,67.8,56.0,30.09,WNW,285,1.0,1.0,66,0.00,,,0.00,0,Wunderground v.1.15,2013-06-21 22:30:00,
2013-06-22 00:40:00,67.6,55.8,30.08,WNW,285,1.0,1.0,66,0.00,,,0.00,0,Wunderground v.1.15,2013-06-21 22:40:00,
2013-06-22 00:55:00,67.5,56.2,30.08,WNW,285,1.0,2.0,67,0.00,,,0.00,0,Wunderground v.1.15,2013-06-21 22:55:00,
2013-06-22 01:10:00,67.3,56.0,30.08,WNW,284,1.0,2.0,67,0.00,,,0.00,0,Wunderground v.1.15,2013-06-21 23:10:00,
2013-06-22 01:21:00,67.2,56.3,30.08,WNW,285,1.0,1.0,68,0.00,,,0.00,0,Wunderground v.1.15,2013-06-21 23:21:00,
2013-06-22 01:35:00,66.9,55.6,30.08,WNW,285,0.0,0.0,67,0.00,,,0.00,0,Wunderground v.1.15,2013-06-21 23:35:00,
2013-06-22 01:50:00,66.4,55.5,30.08,WNW,283,1.0,1.0,68,0.00,,,0.00,0,Wunderground v.1.15,2013-06-21 23:50:00,
2013-06-22 02:05:00,66.2,55.7,30.08,WNW,283,1.0,1.0,69,0.00,,,0.00,0,Wunderground v.1.15,2013-06-22 00:05:00,
2013-06-22 02:20:00,66.3,56.2,30.08,WNW,283,0.0,0.0,70,0.00,,,0.00,0,Wunderground v.1.15,2013-06-22 00:20:00,
2013-06-22 02:35:00,66.4,56.3,30.08,WNW,283,0.0,0.0,70,0.00,,,0.00,0,Wunderground v.1.15,2013-06-22 00:35:00,
2013-06-22 02:46:00,66.4,56.3,30.08,WNW,283,0.0,0.0,70,0.00,,,0.00,0,Wunderground v.1.15,2013-06-22 00:46:00,
2013-06-22 03:05:00,66.4,56.3,30.07,WNW,283,0.0,0.0,70,0.00,,,0.00,0,Wunderground v.1.15,2013-06-22 01:05:00,
2013-06-22 03:16:00,66.4,56.3,30.07,WNW,283,0.0,0.0,70,0.00,,,0.00,0,Wunderground v.1.15,2013-06-22 01:16:00,
2013-06-22 03:25:00,66.4,56.3,30.07,WNW,283,0.0,0.0,70,0.00,,,0.00,0,Wunderground v.1.15,2013-06-22 01:25:00,
2013-06-22 03:31:00,66.4,56.3,30.07,WNW,283,0.0,0.0,70,0.00,,,0.00,0,Wunderground v.1.15,2013-06-22 01:31:00,
2013-06-22 03:45:00,66.4,55.9,30.07,WNW,283,0.0,0.0,69,0.00,,,0.00,0,Wunderground v.1.15,2013-06-22 01:45:00,
2013-06-22 03:56:00,66.5,56.4,30.07,WNW,283,0.0,0.0,70,0.00,,,0.00,0,Wunderground v.1.15,2013-06-22 01:56:00,
2013-06-22 04:05:00,66.6,56.5,30.06,WNW,283,0.0,0.0,70,0.00,,,0.00,0,Wunderground v.1.15,2013-06-22 02:05:00,
2013-06-22 04:15:00,66.7,56.6,30.06,WNW,283,0.0,0.0,70,0.00,,,0.00,0,Wunderground v.1.15,2013-06-22 02:15:00,
2013-06-22 04:30:00,66.7,56.2,30.06,WNW,283,0.0,1.0,69,0.00,,,0.00,0,Wunderground v.1.15,2013-06-22 02:30:00,
2013-06-22 04:40:00,67.0,56.1,30.06,WNW,288,1.0,1.0,68,0.00,,,0.00,0,Wunderground v.1.15,2013-06-22 02:40:00,
2013-06-22 04:55:00,67.1,56.2,30.06,WNW,288,0.0,0.0,68,0.00,,,0.00,0,Wunderground v.1.15,2013-06-22 02:55:00,
2013-06-22 05:05:00,66.7,55.8,30.06,WNW,287,2.0,2.0,68,0.00,,,0.00,0,Wunderground v.1.15,2013-06-22 03:05:00,
2013-06-22 05:15:00,66.4,55.5,30.06,WNW,287,2.0,2.0,68,0.00,,,0.00,0,Wunderground v.1.15,2013-06-22 03:15:00,
2013-06-22 05:25:00,66.1,55.2,30.06,WNW,287,1.0,1.0,68,0.00,,,0.00,0,Wunderground v.1.15,2013-06-22 03:25:00,
2013-06-22 05:35:00,65.7,54.8,30.06,WNW,288,1.0,1.0,68,0.00,,,0.00,0,Wunderground v.1.15,2013-06-22 03:35:00,
2013-06-22 05:40:00,65.6,54.8,30.06,WNW,288,0.0,1.0,68,0.00,,,0.00,0,Wunderground v.1.15,2013-06-22 03:40:00,
2013-06-22 05:50:00,65.2,54.4,30.06,WNW,287,2.0,2.0,68,0.00,,,0.00,0,Wunderground v.1.15,2013-06-22 03:50:00,
2013-06-22 06:05:00,64.9,54.1,30.07,WNW,290,2.0,2.0,68,0.00,,,0.00,0,Wunderground v.1.15,2013-06-22 04:05:00,
2013-06-22 06:10:00,64.9,54.1,30.07,WNW,290,2.0,2.0,68,0.00,,,0.00,0,Wunderground v.1.15,2013-06-22 04:10:00,
2013-06-22 06:20:00,64.8,54.0,30.06,WNW,290,0.0,1.0,68,0.00,,,0.00,0,Wunderground v.1.15,2013-06-22 04:20:00,
2013-06-22 06:30:00,64.7,54.3,30.07,WNW,290,1.0,3.0,69,0.00,,,0.00,5,Wunderground v.1.15,2013-06-22 04:30:00,
2013-06-22 06:40:00,64.5,54.1,30.07,WNW,287,3.0,3.0,69,0.00,,,0.00,11,Wunderground v.1.15,2013-06-22 04:40:00,
2013-06-22 06:45:00,64.5,54.1,30.07,WNW,288,2.0,3.0,69,0.00,,,0.00,12,Wunderground v.1.15,2013-06-22 04:45:00,
2013-06-22 06:55:00,64.5,54.1,30.06,WNW,288,1.0,3.0,69,0.00,,,0.00,21,Wunderground v.1.15,2013-06-22 04:55:00,
2013-06-22 07:10:00,64.7,54.7,30.06,WNW,287,0.0,0.0,70,0.00,,,0.00,72,Wunderground v.1.15,2013-06-22 05:10:00,
2013-06-22 07:20:00,64.9,54.9,30.06,WNW,288,0.0,0.0,70,0.00,,,0.00,114,Wunderground v.1.15,2013-06-22 05:20:00,
2013-06-22 07:30:00,65.4,55.4,30.06,WNW,288,0.0,0.0,70,0.00,,,0.00,144,Wunderground v.1.15,2013-06-22 05:30:00,
2013-06-22 07:40:00,66.1,56.0,30.06,WNW,287,0.0,0.0,70,0.00,,,0.00,171,Wunderground v.1.15,2013-06-22 05:40:00,
2013-06-22 07:51:00,67.1,56.6,30.07,WNW,287,0.0,2.0,69,0.00,,,0.00,199,Wunderground v.1.15,2013-06-22 05:51:00,
2013-06-22 08:05:00,68.4,57.4,30.07,WNW,287,0.0,0.0,68,0.00,,,0.00,246,Wunderground v.1.15,2013-06-22 06:05:00,
2013-06-22 08:15:00,69.3,57.9,30.08,WNW,287,0.0,0.0,67,0.00,,,0.00,274,Wunderground v.1.15,2013-06-22 06:15:00,
2013-06-22 08:30:00,71.5,59.1,30.08,WNW,287,1.0,2.0,65,0.00,,,0.00,316,Wunderground v.1.15,2013-06-22 06:30:00,
2013-06-22 08:40:00,72.7,60.3,30.08,ESE,117,2.0,3.0,65,0.00,,,0.00,355,Wunderground v.1.15,2013-06-22 06:40:00,
2013-06-22 08:46:00,73.1,61.5,30.09,East,93,3.0,3.0,67,0.00,,,0.00,374,Wunderground v.1.15,2013-06-22 06:46:00,
2013-06-22 09:05:00,73.3,61.7,30.09,East,93,2.0,2.0,67,0.00,,,0.00,436,Wunderground v.1.15,2013-06-22 07:05:00,
2013-06-22 09:11:00,73.5,62.3,30.09,ESE,117,3.0,4.0,68,0.00,,,0.00,459,Wunderground v.1.15,2013-06-22 07:11:00,
2013-06-22 09:21:00,73.9,62.7,30.10,East,83,3.0,4.0,68,0.00,,,0.00,513,Wunderground v.1.15,2013-06-22 07:21:00,
2013-06-22 09:30:00,74.3,63.1,30.09,ENE,70,2.0,7.0,68,0.00,,,0.00,531,Wunderground v.1.15,2013-06-22 07:30:00,
2013-06-22 09:35:00,74.5,63.2,30.09,SE,133,3.0,3.0,68,0.00,,,0.00,582,Wunderground v.1.15,2013-06-22 07:35:00,
2013-06-22 09:45:00,75.1,63.4,30.10,East,80,3.0,3.0,67,0.00,,,0.00,605,Wunderground v.1.15,2013-06-22 07:45:00,
2013-06-22 09:56:00,75.5,62.9,30.10,ESE,114,3.0,3.0,65,0.00,,,0.00,613,Wunderground v.1.15,2013-06-22 07:56:00,
2013-06-22 10:05:00,75.7,62.7,30.10,SE,135,3.0,3.0,64,0.00,,,0.00,650,Wunderground v.1.15,2013-06-22 08:05:00,
2013-06-22 10:10:00,76.1,62.6,30.10,ENE,74,2.0,3.0,63,0.00,,,0.00,656,Wunderground v.1.15,2013-06-22 08:10:00,
2013-06-22 10:25:00,76.7,62.2,30.10,SE,126,3.0,3.0,61,0.00,,,0.00,199,Wunderground v.1.15,2013-06-22 08:25:00,
2013-06-22 10:35:00,76.9,62.0,30.10,SE,125,4.0,4.0,60,0.00,,,0.00,752,Wunderground v.1.15,2013-06-22 08:35:00,
2013-06-22 10:45:00,75.9,61.9,30.10,ESE,109,4.0,7.0,62,0.00,,,0.00,246,Wunderground v.1.15,2013-06-22 08:45:00,
2013-06-22 10:50:00,75.5,61.6,30.11,ENE,78,5.0,7.0,62,0.00,,,0.00,912,Wunderground v.1.15,2013-06-22 08:50:00,
2013-06-22 11:05:00,77.2,62.2,30.11,NNW,345,4.0,4.0,60,0.00,,,0.00,970,Wunderground v.1.15,2013-06-22 09:05:00,
2013-06-22 11:15:00,77.5,62.0,30.11,SE,146,5.0,7.0,59,0.00,,,0.00,336,Wunderground v.1.15,2013-06-22 09:15:00,
2013-06-22 11:26:00,76.8,61.9,30.11,SW,232,4.0,4.0,60,0.00,,,0.00,336,Wunderground v.1.15,2013-06-22 09:26:00,
2013-06-22 11:35:00,76.1,60.7,30.11,East,84,4.0,5.0,59,0.00,,,0.00,171,Wunderground v.1.15,2013-06-22 09:35:00,
2013-06-22 11:41:00,75.8,60.4,30.11,East,83,3.0,3.0,59,0.00,,,0.00,227,Wunderground v.1.15,2013-06-22 09:41:00,
2013-06-22 11:50:00,76.0,61.1,30.11,ESE,121,2.0,4.0,60,0.00,,,0.00,1021,Wunderground v.1.15,2013-06-22 09:50:00,
2013-06-22 11:55:00,76.9,61.0,30.11,East,86,2.0,2.0,58,0.00,,,0.00,1016,Wunderground v.1.15,2013-06-22 09:55:00,
2013-06-22 12:05:00,78.6,61.1,30.10,SE,126,3.0,3.0,55,0.00,,,0.00,1081,Wunderground v.1.15,2013-06-22 10:05:00,
2013-06-22 12:11:00,79.2,60.6,30.11,SE,133,4.0,4.0,53,0.00,,,0.00,288,Wunderground v.1.15,2013-06-22 10:11:00,
2013-06-22 12:20:00,79.6,61.0,30.10,SSE,168,3.0,3.0,53,0.00,,,0.00,1134,Wunderground v.1.15,2013-06-22 10:20:00,
2013-06-22 12:30:00,80.8,60.4,30.10,ESE,105,2.0,2.0,50,0.00,,,0.00,338,Wunderground v.1.15,2013-06-22 10:30:00,
2013-06-22 12:40:00,80.7,59.8,30.10,South,171,2.0,3.0,49,0.00,,,0.00,207,Wunderground v.1.15,2013-06-22 10:40:00,
2013-06-22 12:50:00,79.5,62.4,30.10,WSW,244,4.0,5.0,56,0.00,,,0.00,171,Wunderground v.1.15,2013-06-22 10:50:00,
2013-06-22 13:05:00,77.4,61.9,30.10,WSW,256,5.0,5.0,59,0.00,,,0.00,318,Wunderground v.1.15,2013-06-22 11:05:00,
2013-06-22 13:15:00,78.3,62.3,30.09,SSW,194,3.0,3.0,58,0.00,,,0.00,352,Wunderground v.1.15,2013-06-22 11:15:00,
2013-06-22 13:25:00,78.6,61.6,30.09,SSW,213,5.0,7.0,56,0.00,,,0.00,373,Wunderground v.1.15,2013-06-22 11:25:00,
2013-06-22 13:40:00,79.4,61.3,30.09,South,174,5.0,5.0,54,0.00,,,0.00,1120,Wunderground v.1.15,2013-06-22 11:40:00,
2013-06-22 13:50:00,80.1,61.4,30.09,SSW,212,5.0,8.0,53,0.00,,,0.00,387,Wunderground v.1.15,2013-06-22 11:50:00,
2013-06-22 14:05:00,81.6,61.7,30.09,SSW,198,4.0,6.0,51,0.00,,,0.00,1141,Wunderground v.1.15,2013-06-22 12:05:00,
2013-06-22 14:15:00,81.1,61.8,30.08,South,187,6.0,6.0,52,0.00,,,0.00,269,Wunderground v.1.15,2013-06-22 12:15:00,
2013-06-22 14:26:00,80.2,61.5,30.08,South,190,6.0,6.0,53,0.00,,,0.00,262,Wunderground v.1.15,2013-06-22 12:26:00,
2013-06-22 14:35:00,79.9,61.8,30.09,SSW,200,6.0,6.0,54,0.00,,,0.00,1150,Wunderground v.1.15,2013-06-22 12:35:00,
2013-06-22 14:40:00,79.6,61.5,30.08,SSE,167,6.0,6.0,54,0.00,,,0.00,223,Wunderground v.1.15,2013-06-22 12:40:00,
2013-06-22 14:51:00,78.8,61.3,30.08,SW,219,6.0,6.0,55,0.00,,,0.00,230,Wunderground v.1.15,2013-06-22 12:51:00,
2013-06-22 15:06:00,78.7,62.7,30.08,SSW,194,5.0,8.0,58,0.00,,,0.00,1034,Wunderground v.1.15,2013-06-22 13:06:00,
2013-06-22 15:15:00,78.7,62.7,30.08,SW,233,5.0,6.0,58,0.00,,,0.00,1060,Wunderground v.1.15,2013-06-22 13:15:00,
2013-06-22 15:20:00,78.7,63.2,30.08,SSW,200,6.0,6.0,59,0.00,,,0.00,1074,Wunderground v.1.15,2013-06-22 13:20:00,
2013-06-22 15:35:00,78.6,63.6,30.08,SW,223,6.0,8.0,60,0.00,,,0.00,316,Wunderground v.1.15,2013-06-22 13:35:00,
2013-06-22 15:45:00,77.5,63.0,30.08,SSW,192,6.0,9.0,61,0.00,,,0.00,322,Wunderground v.1.15,2013-06-22 13:45:00,
2013-06-22 15:56:00,76.5,63.0,30.09,SW,221,6.0,8.0,63,0.00,,,0.00,209,Wunderground v.1.15,2013-06-22 13:56:00,
2013-06-22 16:05:00,75.7,62.7,30.10,NE,35,3.0,3.0,64,0.00,,,0.00,46,Wunderground v.1.15,2013-06-22 14:05:00,
2013-06-22 16:15:00,73.9,62.2,30.09,North,360,4.0,6.0,67,0.00,,,0.00,25,Wunderground v.1.15,2013-06-22 14:15:00,
2013-06-22 16:30:00,71.9,61.6,30.10,North,355,4.0,4.0,70,0.00,,,0.00,44,Wunderground v.1.15,2013-06-22 14:30:00,
2013-06-22 16:45:00,71.1,62.4,30.10,NNW,330,2.0,2.0,74,0.00,,,0.00,81,Wunderground v.1.15,2013-06-22 14:45:00,
2013-06-22 16:55:00,71.2,63.2,30.09,ENE,59,1.0,1.0,76,0.00,,,0.01,109,Wunderground v.1.15,2013-06-22 14:55:00,
2013-06-22 17:05:00,71.0,63.8,30.09,ENE,67,2.0,2.0,78,0.00,,,0.01,376,Wunderground v.1.15,2013-06-22 15:05:00,
2013-06-22 17:10:00,71.0,63.8,30.09,ESE,103,2.0,2.0,78,0.00,,,0.01,211,Wunderground v.1.15,2013-06-22 15:10:00,
2013-06-22 17:25:00,70.9,64.1,30.09,NNE,17,1.0,3.0,79,0.00,,,0.01,130,Wunderground v.1.15,2013-06-22 15:25:00,
2013-06-22 17:40:00,71.0,64.2,30.09,SSE,156,2.0,2.0,79,0.00,,,0.01,185,Wunderground v.1.15,2013-06-22 15:40:00,
2013-06-22 17:50:00,71.2,64.7,30.09,SSE,148,2.0,2.0,80,0.00,,,0.01,290,Wunderground v.1.15,2013-06-22 15:50:00,
2013-06-22 18:05:00,71.7,65.2,30.08,WSW,255,2.0,2.0,80,0.00,,,0.01,708,Wunderground v.1.15,2013-06-22 16:05:00,
2013-06-22 18:15:00,72.0,65.1,30.08,WSW,255,2.0,3.0,79,0.00,,,0.01,285,Wunderground v.1.15,2013-06-22 16:15:00,
2013-06-22 18:25:00,72.3,65.1,30.08,West,278,2.0,2.0,78,0.00,,,0.01,250,Wunderground v.1.15,2013-06-22 16:25:00,
2013-06-22 18:40:00,72.9,65.3,30.08,SW,221,3.0,3.0,77,0.00,,,0.01,142,Wunderground v.1.15,2013-06-22 16:40:00,
2013-06-22 18:55:00,72.6,64.6,30.08,SSW,203,3.0,3.0,76,0.00,,,0.01,392,Wunderground v.1.15,2013-06-22 16:55:00,
2013-06-22 19:05:00,73.1,65.1,30.07,South,171,2.0,2.0,76,0.00,,,0.01,380,Wunderground v.1.15,2013-06-22 17:05:00,
2013-06-22 19:15:00,73.6,65.2,30.08,SW,228,3.0,3.0,75,0.00,,,0.01,417,Wunderground v.1.15,2013-06-22 17:15:00,
2013-06-22 19:25:00,73.9,65.1,30.08,South,174,4.0,4.0,74,0.00,,,0.01,394,Wunderground v.1.15,2013-06-22 17:25:00,
2013-06-22 19:40:00,73.3,64.5,30.08,West,262,3.0,6.0,74,0.00,,,0.01,65,Wunderground v.1.15,2013-06-22 17:40:00,
2013-06-22 19:50:00,72.6,64.2,30.08,WSW,257,3.0,3.0,75,0.00,,,0.01,58,Wunderground v.1.15,2013-06-22 17:50:00,
2013-06-22 20:05:00,71.6,63.6,30.08,West,264,4.0,4.0,76,0.00,,,0.02,44,Wunderground v.1.15,2013-06-22 18:05:00,
2013-06-22 20:20:00,70.7,63.1,30.08,SW,230,4.0,6.0,77,0.00,,,0.02,37,Wunderground v.1.15,2013-06-22 18:20:00,
2013-06-22 20:30:00,70.2,63.0,30.08,WSW,248,4.0,4.0,78,0.00,,,0.02,26,Wunderground v.1.15,2013-06-22 18:30:00,
2013-06-22 20:41:00,69.9,63.1,30.08,SW,219,3.0,3.0,79,0.00,,,0.02,23,Wunderground v.1.15,2013-06-22 18:41:00,
2013-06-22 20:50:00,69.7,63.3,30.08,SW,232,2.0,3.0,80,0.00,,,0.02,16,Wunderground v.1.15,2013-06-22 18:50:00,
2013-06-22 21:05:00,69.2,62.8,30.09,WSW,237,3.0,4.0,80,0.00,,,0.02,9,Wunderground v.1.15,2013-06-22 19:05:00,
2013-06-22 21:15:00,68.9,62.8,30.09,South,186,3.0,3.0,81,0.00,,,0.02,5,Wunderground v.1.15,2013-06-22 19:15:00,
2013-06-22 21:30:00,68.5,62.8,30.09,SW,230,2.0,2.0,82,0.00,,,0.02,0,Wunderground v.1.15,2013-06-22 19:30:00,
2013-06-22 21:45:00,68.2,62.8,30.09,WSW,255,1.0,2.0,83,0.00,,,0.02,0,Wunderground v.1.15,2013-06-22 19:45:00,
2013-06-22 21:55:00,68.0,62.6,30.10,WSW,254,2.0,2.0,83,0.00,,,0.02,0,Wunderground v.1.15,2013-06-22 19:55:00,
2013-06-22 22:10:00,67.8,62.4,30.10,WSW,250,2.0,3.0,83,0.00,,,0.02,0,Wunderground v.1.15,2013-06-22 20:10:00,
2013-06-22 22:25:00,67.7,62.7,30.11,WSW,250,1.0,1.0,84,0.00,,,0.02,0,Wunderground v.1.15,2013-06-22 20:25:00,
2013-06-22 22:35:00,67.6,62.6,30.11,WSW,249,1.0,1.0,84,0.00,,,0.02,0,Wunderground v.1.15,2013-06-22 20:35:00,
2013-06-22 22:50:00,67.5,62.5,30.12,WSW,250,1.0,1.0,84,0.00,,,0.02,0,Wunderground v.1.15,2013-06-22 20:50:00,
2013-06-22 23:05:00,67.4,62.7,30.12,WSW,250,1.0,1.0,85,0.00,,,0.02,0,Wunderground v.1.15,2013-06-22 21:05:00,
2013-06-22 23:15:00,67.3,62.6,30.12,WSW,250,1.0,1.0,85,0.00,,,0.02,0,Wunderground v.1.15,2013-06-22 21:15:00,
2013-06-22 23:25:00,67.2,62.5,30.12,WSW,250,1.0,1.0,85,0.00,,,0.02,0,Wunderground v.1.15,2013-06-22 21:25:00,
2013-06-22 23:36:00,67.1,62.4,30.12,WSW,250,1.0,1.0,85,0.00,,,0.02,0,Wunderground v.1.15,2013-06-22 21:36:00,
2013-06-22 23:45:00,66.8,62.1,30.12,WNW,293,2.0,4.0,85,0.00,,,0.02,0,Wunderground v.1.15,2013-06-22 21:45:00,
2013-06-22 23:50:00,66.7,62.0,30.12,West,280,3.0,5.0,85,0.00,,,0.02,0,Wunderground v.1.15,2013-06-22 21:50:00,